createdAt,value
2018-12-05T00:02:04.412Z,23.27
2018-12-05T00:06:06.732Z,20.17
2018-12-05T00:10:09.157Z,22.80
2018-12-05T00:14:11.468Z,20.37
2018-12-05T00:18:13.882Z,19.07
2018-12-05T00:22:16.177Z,17.77
2018-12-05T00:26:18.870Z,19.47
2018-12-05T00:30:21.639Z,17.93
2018-12-05T00:34:24.005Z,19.03
2018-12-05T00:38:26.361Z,21.37
2018-12-05T00:42:28.696Z,22.67
2018-12-05T00:46:30.987Z,19.80
2018-12-05T00:50:33.349Z,36.83
2018-12-05T00:54:35.714Z,49.33
2018-12-05T00:58:38.126Z,38.53
2018-12-05T01:02:40.464Z,28.00
2018-12-05T01:06:42.781Z,26.90
2018-12-05T01:10:45.176Z,34.27
2018-12-05T01:14:47.524Z,19.90
2018-12-05T01:18:49.864Z,17.43
2018-12-05T01:22:52.174Z,21.73
2018-12-05T01:26:54.500Z,24.70
2018-12-05T01:30:56.809Z,22.10
2018-12-05T01:34:59.222Z,19.73
2018-12-05T01:39:02.882Z,17.87
2018-12-05T01:43:05.383Z,18.37
2018-12-05T01:47:07.746Z,16.17
2018-12-05T01:51:10.158Z,17.10
2018-12-05T01:55:13.014Z,15.93
2018-12-05T01:59:15.805Z,15.63
2018-12-05T02:03:18.221Z,17.10
2018-12-05T02:07:20.574Z,13.77
2018-12-05T02:11:22.931Z,13.30
2018-12-05T02:15:25.330Z,13.80
2018-12-05T02:19:27.719Z,13.17
2018-12-05T02:23:30.206Z,14.43
2018-12-05T02:27:32.586Z,13.70
2018-12-05T02:31:34.962Z,10.80
2018-12-05T02:35:37.289Z,11.80
2018-12-05T02:39:39.619Z,11.03
2018-12-05T02:43:41.994Z,12.00
2018-12-05T02:47:44.329Z,10.17
2018-12-05T02:51:46.658Z,11.70
2018-12-05T02:55:49.084Z,12.77
2018-12-05T02:59:51.450Z,10.20
2018-12-05T03:03:53.760Z,12.60
2018-12-05T03:07:56.162Z,13.40
2018-12-05T03:11:58.498Z,13.20
2018-12-05T03:16:00.844Z,10.60
2018-12-05T03:20:05.310Z,11.30
2018-12-05T03:24:05.930Z,11.70
2018-12-05T03:28:08.233Z,10.53
2018-12-05T03:32:10.601Z,11.10
2018-12-05T03:36:12.988Z,11.47
2018-12-05T03:40:15.371Z,12.20
2018-12-05T03:44:17.665Z,11.93
2018-12-05T03:48:20.009Z,13.07
2018-12-05T03:52:22.350Z,13.63
2018-12-05T03:56:24.727Z,13.30
2018-12-05T04:00:27.053Z,14.10
2018-12-05T04:04:29.401Z,14.03
2018-12-05T04:08:31.739Z,15.00
2018-12-05T04:12:40.519Z,13.53
2018-12-05T04:16:36.425Z,13.83
2018-12-05T04:20:38.919Z,15.43
2018-12-05T04:24:41.299Z,15.10
2018-12-05T04:28:43.697Z,13.93
2018-12-05T04:32:46.079Z,13.13
2018-12-05T04:36:48.484Z,15.70
2018-12-05T04:40:50.804Z,14.40
2018-12-05T04:44:53.137Z,13.37
2018-12-05T04:48:55.480Z,15.75
2018-12-05T04:52:57.809Z,14.57
2018-12-05T04:57:00.194Z,12.97
2018-12-05T05:01:02.611Z,14.10
2018-12-05T05:05:05.438Z,14.57
2018-12-05T05:09:07.819Z,16.27
2018-12-05T05:13:10.151Z,16.40
2018-12-05T05:17:12.588Z,14.83
2018-12-05T05:21:14.919Z,14.37
2018-12-05T05:25:17.309Z,15.23
2018-12-05T05:29:19.688Z,14.33
2018-12-05T05:33:22.078Z,13.93
2018-12-05T05:37:24.433Z,12.67
2018-12-05T05:41:26.768Z,13.33
2018-12-05T05:45:29.149Z,13.40
2018-12-05T05:49:31.474Z,14.57
2018-12-05T05:53:33.882Z,13.13
2018-12-05T05:57:36.269Z,14.77
2018-12-05T06:01:38.579Z,16.70
2018-12-05T06:05:40.915Z,15.63
2018-12-05T06:09:43.295Z,18.70
2018-12-05T06:13:45.675Z,18.20
2018-12-05T06:17:48.125Z,17.93
2018-12-05T06:21:50.501Z,16.90
2018-12-05T06:25:52.953Z,18.07
2018-12-05T06:29:55.304Z,14.70
2018-12-05T06:33:57.631Z,15.83
2018-12-05T06:37:59.964Z,14.47
2018-12-05T06:42:02.370Z,13.83
2018-12-05T06:46:04.750Z,12.63
2018-12-05T06:50:07.659Z,12.97
2018-12-05T06:54:09.974Z,11.33
2018-12-05T06:58:12.293Z,11.47
2018-12-05T07:02:14.578Z,10.60
2018-12-05T07:06:16.913Z,12.43
2018-12-05T07:10:19.293Z,13.23
2018-12-05T07:14:21.684Z,10.93
2018-12-05T07:18:24.044Z,10.47
2018-12-05T07:22:26.552Z,10.20
2018-12-05T07:26:28.945Z,9.40
2018-12-05T07:30:31.292Z,9.23
2018-12-05T07:34:33.648Z,12.90
2018-12-05T07:38:36.005Z,11.73
2018-12-05T07:42:38.348Z,11.10
2018-12-05T07:46:40.767Z,9.37
2018-12-05T07:50:43.227Z,11.97
2018-12-05T07:54:45.677Z,13.17
2018-12-05T07:58:48.037Z,12.43
2018-12-05T08:02:50.427Z,11.30
2018-12-05T08:06:52.738Z,11.23
2018-12-05T08:10:55.097Z,11.50
2018-12-05T08:14:57.423Z,9.67
2018-12-05T08:18:59.763Z,6.93
2018-12-05T08:23:02.182Z,10.03
2018-12-05T08:27:04.584Z,8.73
2018-12-05T08:31:06.987Z,6.70
2018-12-05T08:35:09.418Z,10.13
2018-12-05T08:39:11.798Z,8.00
2018-12-05T08:43:26.995Z,7.67
2018-12-05T08:47:33.819Z,8.70
2018-12-05T08:51:31.726Z,8.83
2018-12-05T08:55:34.070Z,8.23
2018-12-05T08:59:36.392Z,8.20
2018-12-05T09:03:38.763Z,6.90
2018-12-05T09:07:41.123Z,6.53
2018-12-05T09:11:43.502Z,5.73
2018-12-05T09:15:45.886Z,7.23
2018-12-05T09:19:48.209Z,7.57
2018-12-05T09:23:50.617Z,6.97
2018-12-05T09:27:52.946Z,6.87
2018-12-05T09:31:55.343Z,6.93
2018-12-05T09:35:57.712Z,5.80
2018-12-05T09:40:00.018Z,7.17
2018-12-05T09:44:02.731Z,6.13
2018-12-05T09:48:05.147Z,6.07
2018-12-05T09:52:07.541Z,6.97
2018-12-05T09:56:09.882Z,7.20
2018-12-05T10:00:12.317Z,6.10
2018-12-05T10:04:14.755Z,6.77
2018-12-05T10:08:17.170Z,9.83
2018-12-05T10:12:19.589Z,6.97
2018-12-05T10:16:21.955Z,8.27
2018-12-05T10:20:24.314Z,9.47
2018-12-05T10:24:26.716Z,6.77
2018-12-05T10:28:29.081Z,7.60
2018-12-05T10:32:31.454Z,9.07
2018-12-05T10:36:33.835Z,12.37
2018-12-05T10:40:36.205Z,32.73
2018-12-05T10:44:38.563Z,18.63
2018-12-05T10:48:40.952Z,12.90
2018-12-05T10:52:43.339Z,11.40
2018-12-05T10:56:45.989Z,13.60
2018-12-05T11:00:53.674Z,9.50
2018-12-05T11:05:01.740Z,11.97
2018-12-05T11:09:12.654Z,9.93
2018-12-05T11:13:20.648Z,10.97
2018-12-05T11:17:28.656Z,11.13
2018-12-05T11:21:37.164Z,10.80
2018-12-05T11:25:39.579Z,10.27
2018-12-05T11:29:42.636Z,11.20
2018-12-05T11:33:44.956Z,11.73
2018-12-05T11:37:47.346Z,11.63
2018-12-05T11:41:50.697Z,19.00
2018-12-05T11:45:54.358Z,12.80
2018-12-05T11:49:56.789Z,11.47
2018-12-05T11:53:59.244Z,13.63
2018-12-05T11:58:01.669Z,13.30
2018-12-05T12:02:04.983Z,19.70
2018-12-05T12:06:07.375Z,14.27
2018-12-05T12:10:09.836Z,14.37
2018-12-05T12:14:12.728Z,13.40
2018-12-05T12:18:15.050Z,13.87
2018-12-05T12:22:17.481Z,14.40
2018-12-05T12:26:19.830Z,13.40
2018-12-05T12:30:22.187Z,13.83
2018-12-05T12:34:24.544Z,15.17
2018-12-05T12:38:26.961Z,14.20
2018-12-05T12:42:29.339Z,14.77
2018-12-05T12:46:31.838Z,14.20
2018-12-05T12:50:34.278Z,14.67
2018-12-05T12:54:36.634Z,15.57
2018-12-05T12:58:39.030Z,15.87
2018-12-05T13:02:41.432Z,16.23
2018-12-05T13:06:43.756Z,16.87
2018-12-05T13:10:46.152Z,18.23
2018-12-05T13:14:48.485Z,35.47
2018-12-05T13:18:50.896Z,17.50
2018-12-05T13:22:53.279Z,19.33
2018-12-05T13:26:55.839Z,16.10
2018-12-05T13:30:58.800Z,14.77
2018-12-05T13:35:01.549Z,15.03
2018-12-05T13:39:05.957Z,16.67
2018-12-05T13:43:09.143Z,17.30
2018-12-05T13:47:12.103Z,17.43
2018-12-05T13:51:14.669Z,16.27
2018-12-05T13:55:17.524Z,16.77
2018-12-05T13:59:20.206Z,17.33
2018-12-05T14:03:23.114Z,18.07
2018-12-05T14:07:25.919Z,18.13
2018-12-05T14:11:28.714Z,16.57
2018-12-05T14:15:31.095Z,20.30
2018-12-05T14:19:33.499Z,19.17
2018-12-05T14:23:35.972Z,19.03
2018-12-05T14:27:39.323Z,21.23
2018-12-05T14:31:42.813Z,23.20
2018-12-05T14:35:45.315Z,25.50
2018-12-05T14:39:47.813Z,22.90
2018-12-05T14:43:50.344Z,21.97
2018-12-05T14:47:52.735Z,21.20
2018-12-05T14:51:55.145Z,21.50
2018-12-05T14:55:57.578Z,20.43
2018-12-05T15:00:05.711Z,22.67
2018-12-05T15:04:08.150Z,22.13
2018-12-05T15:08:11.058Z,22.00
2018-12-05T15:12:13.443Z,25.67
2018-12-05T15:16:15.816Z,22.83
2018-12-05T15:20:18.277Z,24.10
2018-12-05T15:24:20.662Z,24.93
2018-12-05T15:28:23.095Z,24.27
2018-12-05T15:32:25.520Z,24.13
2018-12-05T15:36:27.947Z,26.47
2018-12-05T15:40:30.268Z,25.90
2018-12-05T15:44:32.744Z,26.73
2018-12-05T15:48:35.199Z,26.10
2018-12-05T15:52:37.668Z,24.80
2018-12-05T15:56:40.003Z,25.83
2018-12-05T16:00:42.364Z,25.73
2018-12-05T16:04:44.822Z,26.93
2018-12-05T16:08:47.259Z,25.27
2018-12-05T16:12:49.679Z,26.00
2018-12-05T16:16:52.265Z,24.03
2018-12-05T16:20:54.663Z,23.47
2018-12-05T16:24:57.035Z,23.87
2018-12-05T16:29:00.144Z,25.13
2018-12-05T16:33:02.974Z,25.23
2018-12-05T16:37:05.733Z,23.23
2018-12-05T16:41:08.755Z,32.90
2018-12-05T16:45:11.595Z,24.57
2018-12-05T16:49:14.388Z,27.03
2018-12-05T16:53:16.900Z,23.77
2018-12-05T16:57:19.487Z,25.03
2018-12-05T17:01:22.466Z,24.87
2018-12-05T17:05:25.004Z,25.23
2018-12-05T17:09:27.534Z,24.43
2018-12-05T17:13:29.968Z,26.13
2018-12-05T17:17:33.727Z,23.03
2018-12-05T17:21:36.173Z,47.97
2018-12-05T17:25:38.768Z,47.30
2018-12-05T17:29:41.267Z,44.77
2018-12-05T17:33:43.618Z,29.73
2018-12-05T17:37:46.111Z,27.03
2018-12-05T17:41:48.526Z,24.70
2018-12-05T17:45:50.877Z,24.97
2018-12-05T17:49:53.339Z,24.90
2018-12-05T17:53:55.740Z,24.13
2018-12-05T17:57:58.160Z,23.67
2018-12-05T18:02:00.618Z,29.03
2018-12-05T18:06:03.048Z,25.43
2018-12-05T18:10:05.602Z,24.47
2018-12-05T18:14:08.104Z,26.17
2018-12-05T18:18:10.541Z,25.53
2018-12-05T18:22:12.983Z,27.37
2018-12-05T18:26:15.883Z,25.73
2018-12-05T18:30:18.263Z,26.90
2018-12-05T18:34:20.809Z,27.00
2018-12-05T18:38:23.257Z,26.23
2018-12-05T18:42:25.612Z,24.37
2018-12-05T18:46:28.058Z,27.83
2018-12-05T18:50:30.424Z,28.80
2018-12-05T18:54:32.842Z,28.23
2018-12-05T18:58:35.256Z,29.30
2018-12-05T19:02:37.677Z,29.57
2018-12-05T19:06:40.106Z,36.23
2018-12-05T19:10:42.588Z,29.80
2018-12-05T19:14:45.371Z,34.33
2018-12-05T19:18:48.382Z,27.60
2018-12-05T19:22:51.142Z,30.80
2018-12-05T19:26:53.624Z,30.97
2018-12-05T19:30:56.046Z,29.00
2018-12-05T19:34:58.848Z,31.10
2018-12-05T19:39:01.802Z,30.17
2018-12-05T19:43:04.415Z,29.50
2018-12-05T19:47:07.171Z,31.53
2018-12-05T19:51:10.213Z,30.17
2018-12-05T19:55:12.913Z,29.37
2018-12-05T19:59:15.404Z,31.40
2018-12-05T20:03:18.302Z,33.03
2018-12-05T20:07:22.837Z,32.57
2018-12-05T20:11:25.481Z,31.80
2018-12-05T20:15:28.272Z,30.67
2018-12-05T20:19:32.256Z,31.97
2018-12-05T20:23:34.940Z,29.80
2018-12-05T20:27:37.357Z,34.10
2018-12-05T20:31:39.881Z,33.57
2018-12-05T20:35:42.538Z,33.03
2018-12-05T20:39:45.474Z,33.07
2018-12-05T20:43:48.685Z,32.40
2018-12-05T20:47:51.076Z,33.50
2018-12-05T20:51:53.566Z,31.27
2018-12-05T20:55:55.963Z,32.80
2018-12-05T20:59:58.527Z,31.17
2018-12-05T21:04:00.996Z,31.13
2018-12-05T21:08:03.593Z,31.27
2018-12-05T21:12:06.784Z,34.33
2018-12-05T21:16:09.207Z,30.97
2018-12-05T21:20:11.746Z,31.83
2018-12-05T21:24:14.226Z,29.20
2018-12-05T21:28:16.621Z,32.10
2018-12-05T21:32:19.017Z,29.17
2018-12-05T21:36:21.640Z,29.37
2018-12-05T21:40:24.063Z,31.53
2018-12-05T21:44:26.503Z,31.00
2018-12-05T21:48:28.900Z,32.03
2018-12-05T21:52:31.312Z,29.63
2018-12-05T21:56:33.720Z,27.33
2018-12-05T22:00:37.016Z,27.23
2018-12-05T22:04:39.433Z,27.20
2018-12-05T22:08:42.090Z,28.27
2018-12-05T22:12:44.507Z,26.17
2018-12-05T22:16:47.306Z,28.30
2018-12-05T22:20:53.317Z,27.97
2018-12-05T22:25:02.512Z,29.23
2018-12-05T22:29:04.890Z,30.80
2018-12-05T22:33:07.242Z,29.17
2018-12-05T22:37:09.691Z,30.10
2018-12-05T22:41:12.042Z,31.20
2018-12-05T22:45:14.447Z,31.80
2018-12-05T22:49:16.802Z,27.73
2018-12-05T22:53:19.247Z,29.17
2018-12-05T22:57:21.565Z,28.90
2018-12-05T23:01:24.027Z,32.13
2018-12-05T23:05:26.478Z,31.57
2018-12-05T23:09:28.916Z,31.27
2018-12-05T23:13:31.359Z,29.77
2018-12-05T23:17:33.740Z,29.07
2018-12-05T23:21:36.101Z,29.90
2018-12-05T23:25:38.506Z,27.87
2018-12-05T23:29:40.931Z,28.70
2018-12-05T23:33:43.245Z,27.27
2018-12-05T23:37:45.638Z,28.10
2018-12-05T23:41:48.076Z,25.90
2018-12-05T23:45:50.490Z,30.50
2018-12-05T23:49:52.754Z,28.00
2018-12-05T23:53:55.167Z,29.13
2018-12-05T23:57:57.574Z,31.77
